Time;durP1;ratioP1;P1;durP2;ratioP2;P2;SDS_P1;SDS_P2;PMS_P1;PMS_P2;Temp;Humidity;BMP_temperature;BMP_pressure;BME280_temperature;BME280_humidity;BME280_pressure;Samples;Min_cycle;Max_cycle;Signal;HPM_P1;HPM_P2
2021/07/31 00:00:01;;;;;;;;;;;20.70;99.90;20.90;99262.00;;;;343655;28;90589;-91
2021/07/31 00:00:14;;;;;;;;;;;20.70;99.90;20.90;99259.00;;;;343630;28;83362;-92
2021/07/31 00:00:27;;;;;;;;;;;20.70;99.90;21.00;99260.00;;;;346253;28;90328;-91
2021/07/31 00:00:39;;;;;;;;;;;20.70;99.90;21.00;99266.00;;;;345376;28;82500;-92
2021/07/31 00:01:01;;;;;;;;;;;20.70;99.90;21.00;99265.00;;;;343449;28;91325;-91
2021/07/31 00:01:13;;;;;;;;;;;20.70;99.90;21.00;99253.00;;;;346684;28;83523;-92
2021/07/31 00:01:25;;;;;;;;;;;20.70;99.90;21.00;99264.00;;;;344607;28;91472;-91
2021/07/31 00:01:38;;;;;;;;;;;20.70;99.90;21.00;99265.00;;;;345371;28;83382;-91
2021/07/31 00:01:51;;;;;;;;;;;20.70;99.90;21.00;99265.00;;;;345614;28;89065;-91
2021/07/31 00:02:03;;;;;;;;;;;20.70;99.90;21.00;99265.00;;;;345211;28;83382;-90
2021/07/31 00:02:18;;;;;;;;;;;20.70;99.90;21.00;99248.00;;;;342104;28;91648;-92
2021/07/31 00:02:30;;;;;;;;;;;20.70;99.90;21.00;99264.00;;;;347628;28;83158;-91
2021/07/31 00:02:43;;;;;;;;;;;20.70;99.90;21.00;99258.00;;;;344764;28;90830;-91
2021/07/31 00:02:55;;;;;;;;;;;20.70;99.90;21.00;99258.00;;;;342137;28;83320;-91
2021/07/31 00:03:07;;;;;;;;;;;20.70;99.90;20.90;99255.00;;;;346185;28;92562;-91
2021/07/31 00:03:19;;;;;;;;;;;20.70;99.90;20.80;99261.00;;;;347785;28;83473;-91
2021/07/31 00:03:32;;;;;;;;;;;20.70;99.90;20.80;99264.00;;;;344572;28;90700;-91
2021/07/31 00:03:44;;;;;;;;;;;20.70;99.90;20.80;99253.00;;;;348949;27;83401;-91
2021/07/31 00:04:12;;;;;;;;;;;20.70;99.90;20.80;99259.00;;;;347093;28;90879;-90
2021/07/31 00:04:23;;;;;;;;;;;20.70;99.90;20.80;99267.00;;;;345219;28;83523;-91
2021/07/31 00:04:35;;;;;;;;;;;20.70;99.90;20.90;99260.00;;;;345906;28;91390;-91
2021/07/31 00:04:49;;;;;;;;;;;20.70;99.90;20.80;99261.00;;;;345154;28;82446;-91
2021/07/31 00:05:01;;;;;;;;;;;20.70;99.90;20.80;99259.00;;;;343327;28;91082;-91
2021/07/31 00:05:14;;;;;;;;;;;20.70;99.90;20.70;99256.00;;;;343653;28;83413;-90
2021/07/31 00:05:26;;;;;;;;;;;20.70;99.90;20.70;99265.00;;;;344607;28;91684;-91
2021/07/31 00:05:37;;;;;;;;;;;20.70;99.90;20.70;99261.00;;;;343799;28;83363;-92
2021/07/31 00:05:49;;;;;;;;;;;20.70;99.90;20.70;99268.00;;;;343216;28;91523;-90
2021/07/31 00:06:01;;;;;;;;;;;20.70;99.90;20.70;99259.00;;;;346665;28;82487;-91
2021/07/31 00:06:13;;;;;;;;;;;20.70;99.90;20.70;99256.00;;;;344757;28;90052;-90
2021/07/31 00:06:25;;;;;;;;;;;20.70;99.90;20.80;99262.00;;;;344737;28;82640;-91
2021/07/31 00:06:37;;;;;;;;;;;20.70;99.90;20.80;99264.00;;;;345796;28;92447;-91
2021/07/31 00:06:49;;;;;;;;;;;20.70;99.90;20.80;99259.00;;;;345106;28;84058;-91
2021/07/31 00:07:01;;;;;;;;;;;20.70;99.90;20.60;99266.00;;;;344147;28;90845;-91
2021/07/31 00:07:13;;;;;;;;;;;20.70;99.90;20.70;99267.00;;;;342832;28;82586;-91
2021/07/31 00:07:25;;;;;;;;;;;20.60;99.90;20.80;99259.00;;;;342167;28;92047;-90
2021/07/31 00:07:37;;;;;;;;;;;20.70;99.90;20.80;99259.00;;;;342664;28;82594;-91
2021/07/31 00:07:50;;;;;;;;;;;20.70;99.90;20.70;99260.00;;;;346158;28;89593;-91
2021/07/31 00:08:02;;;;;;;;;;;20.60;99.90;20.80;99263.00;;;;343940;28;83339;-91
2021/07/31 00:08:14;;;;;;;;;;;20.60;99.90;20.80;99259.00;;;;343365;28;91831;-91
2021/07/31 00:08:28;;;;;;;;;;;20.70;99.90;20.70;99265.00;;;;348012;27;83764;-91
2021/07/31 00:08:40;;;;;;;;;;;20.60;99.90;20.70;99262.00;;;;343583;28;89276;-91
2021/07/31 00:08:52;;;;;;;;;;;20.70;99.90;20.70;99259.00;;;;345472;28;83363;-91
2021/07/31 00:09:04;;;;;;;;;;;20.60;99.90;20.70;99256.00;;;;347575;28;92480;-91
2021/07/31 00:09:16;;;;;;;;;;;20.60;99.90;20.80;99263.00;;;;344098;28;83429;-91
2021/07/31 00:09:28;;;;;;;;;;;20.60;99.90;20.80;99258.00;;;;343068;28;91405;-91
2021/07/31 00:09:40;;;;;;;;;;;20.60;99.90;20.80;99259.00;;;;346571;28;82516;-90
2021/07/31 00:09:51;;;;;;;;;;;20.60;99.90;20.70;99254.00;;;;345783;28;90565;-90
2021/07/31 00:10:04;;;;;;;;;;;20.60;99.90;20.80;99261.00;;;;342292;28;82739;-91
2021/07/31 00:10:16;;;;;;;;;;;20.60;99.90;20.80;99260.00;;;;344248;28;91538;-91
2021/07/31 00:10:27;;;;;;;;;;;20.60;99.90;20.80;99259.00;;;;343507;28;82556;-90
2021/07/31 00:10:39;;;;;;;;;;;20.60;99.90;20.90;99260.00;;;;345980;28;92129;-91
2021/07/31 00:10:51;;;;;;;;;;;20.60;99.90;20.80;99261.00;;;;343419;28;83565;-91
2021/07/31 00:11:03;;;;;;;;;;;20.60;99.90;20.70;99261.00;;;;345747;28;91882;-91
2021/07/31 00:11:15;;;;;;;;;;;20.60;99.90;20.80;99257.00;;;;343476;28;83387;-91
2021/07/31 00:11:26;;;;;;;;;;;20.60;99.90;20.70;99261.00;;;;343050;28;89115;-90
2021/07/31 00:11:38;;;;;;;;;;;20.60;99.90;20.70;99256.00;;;;347567;28;83302;-91
2021/07/31 00:11:50;;;;;;;;;;;20.60;99.90;20.80;99260.00;;;;344128;28;90432;-90
2021/07/31 00:12:02;;;;;;;;;;;20.60;99.90;20.70;99256.00;;;;342101;28;83513;-91
2021/07/31 00:12:14;;;;;;;;;;;20.60;99.90;20.60;99264.00;;;;344499;28;91643;-91
2021/07/31 00:12:26;;;;;;;;;;;20.60;99.90;20.60;99255.00;;;;344731;28;83473;-91
2021/07/31 00:12:38;;;;;;;;;;;20.60;99.90;20.60;99254.00;;;;343092;28;88106;-91
2021/07/31 00:12:50;;;;;;;;;;;20.60;99.90;20.60;99259.00;;;;343410;28;82549;-91
2021/07/31 00:13:02;;;;;;;;;;;20.60;99.90;20.60;99257.00;;;;342155;28;92045;-92
2021/07/31 00:13:14;;;;;;;;;;;20.60;99.90;20.60;99255.00;;;;343468;28;83459;-90
2021/07/31 00:13:26;;;;;;;;;;;20.60;99.90;20.60;99256.00;;;;345735;28;91704;-91
2021/07/31 00:13:38;;;;;;;;;;;20.60;99.90;20.70;99259.00;;;;344873;28;83408;-90
2021/07/31 00:13:50;;;;;;;;;;;20.60;99.90;20.70;99259.00;;;;344356;28;91226;-91
2021/07/31 00:14:02;;;;;;;;;;;20.60;99.90;20.70;99251.00;;;;343430;28;82454;-91
2021/07/31 00:14:14;;;;;;;;;;;20.60;99.90;20.70;99265.00;;;;345781;28;90820;-91
2021/07/31 00:14:26;;;;;;;;;;;20.60;99.90;20.70;99261.00;;;;344845;28;83446;-91
2021/07/31 00:14:38;;;;;;;;;;;20.60;99.90;20.70;99261.00;;;;347246;28;91781;-91
2021/07/31 00:14:50;;;;;;;;;;;20.60;99.90;20.60;99263.00;;;;346285;28;82548;-91
2021/07/31 00:15:01;;;;;;;;;;;20.60;99.90;20.60;99256.00;;;;344415;28;88979;-91
2021/07/31 00:15:13;;;;;;;;;;;20.60;99.90;20.50;99254.00;;;;343485;28;83504;-91
2021/07/31 00:15:25;;;;;;;;;;;20.60;99.90;20.50;99261.00;;;;343057;28;92846;-91
2021/07/31 00:15:37;;;;;;;;;;;20.60;99.90;20.50;99258.00;;;;343522;28;82824;-91
2021/07/31 00:15:49;;;;;;;;;;;20.50;99.90;20.60;99260.00;;;;343041;28;91535;-90
2021/07/31 00:16:01;;;;;;;;;;;20.60;99.90;20.50;99258.00;;;;343697;28;83329;-91
2021/07/31 00:16:13;;;;;;;;;;;20.50;99.90;20.60;99259.00;;;;342160;28;91956;-91
2021/07/31 00:16:25;;;;;;;;;;;20.60;99.90;20.50;99257.00;;;;344745;28;82543;-91
2021/07/31 00:16:37;;;;;;;;;;;20.60;99.90;20.50;99256.00;;;;340324;28;90925;-91
2021/07/31 00:16:49;;;;;;;;;;;20.50;99.90;20.50;99257.00;;;;342217;28;82445;-90
2021/07/31 00:17:05;;;;;;;;;;;20.60;99.90;20.50;99256.00;;;;341790;28;92137;-91
2021/07/31 00:17:17;;;;;;;;;;;20.50;99.90;20.50;99256.00;;;;343382;28;82506;-91
2021/07/31 00:17:29;;;;;;;;;;;20.50;99.90;20.50;99260.00;;;;341569;28;91373;-91
2021/07/31 00:17:42;;;;;;;;;;;20.50;99.90;20.50;99255.00;;;;344808;28;82571;-91
2021/07/31 00:17:53;;;;;;;;;;;20.50;99.90;20.50;99259.00;;;;344430;28;90549;-91
2021/07/31 00:18:05;;;;;;;;;;;20.50;99.90;20.40;99257.00;;;;344924;28;82529;-91
2021/07/31 00:18:17;;;;;;;;;;;20.50;99.90;20.40;99254.00;;;;344441;28;90764;-91
2021/07/31 00:18:29;;;;;;;;;;;20.50;99.90;20.40;99263.00;;;;341969;28;83497;-90
2021/07/31 00:18:41;;;;;;;;;;;20.50;99.90;20.50;99263.00;;;;342972;28;92298;-90
2021/07/31 00:18:53;;;;;;;;;;;20.50;99.90;20.50;99261.00;;;;344825;28;83443;-91
2021/07/31 00:19:05;;;;;;;;;;;20.50;99.90;20.60;99262.00;;;;342420;28;91228;-91
2021/07/31 00:19:17;;;;;;;;;;;20.50;99.90;20.60;99257.00;;;;344716;28;82624;-91
2021/07/31 00:19:29;;;;;;;;;;;20.50;99.90;20.70;99264.00;;;;341450;28;92577;-91
2021/07/31 00:19:41;;;;;;;;;;;20.50;99.90;20.70;99264.00;;;;343373;28;83453;-90
2021/07/31 00:19:53;;;;;;;;;;;20.50;99.90;20.70;99259.00;;;;344424;28;91584;-91
2021/07/31 00:20:05;;;;;;;;;;;20.50;99.90;20.70;99259.00;;;;344496;28;83646;-90
2021/07/31 00:20:17;;;;;;;;;;;20.50;99.90;20.70;99264.00;;;;346962;28;92469;-91
2021/07/31 00:20:29;;;;;;;;;;;20.50;99.90;20.70;99255.00;;;;344544;28;82643;-91
2021/07/31 00:20:41;;;;;;;;;;;20.50;99.90;20.70;99262.00;;;;345654;28;92073;-91
2021/07/31 00:20:53;;;;;;;;;;;20.50;99.90;20.70;99261.00;;;;346183;28;83377;-91
2021/07/31 00:21:05;;;;;;;;;;;20.50;99.90;20.70;99254.00;;;;342973;28;90454;-90
2021/07/31 00:21:17;;;;;;;;;;;20.50;99.90;20.60;99264.00;;;;343390;28;83579;-91
2021/07/31 00:21:30;;;;;;;;;;;20.50;99.90;20.70;99257.00;;;;343280;28;91594;-91
2021/07/31 00:21:42;;;;;;;;;;;20.60;99.90;20.80;99260.00;;;;345354;28;83540;-91
2021/07/31 00:21:54;;;;;;;;;;;20.50;99.90;20.70;99266.00;;;;344898;28;90397;-91
2021/07/31 00:22:06;;;;;;;;;;;20.60;99.90;20.70;99266.00;;;;345486;28;82683;-92
2021/07/31 00:22:18;;;;;;;;;;;20.60;99.90;20.60;99265.00;;;;347469;28;90098;-91
2021/07/31 00:22:31;;;;;;;;;;;20.50;99.90;20.60;99263.00;;;;345895;28;82497;-91
2021/07/31 00:22:42;;;;;;;;;;;20.50;99.90;20.60;99258.00;;;;344462;28;91978;-91
2021/07/31 00:22:54;;;;;;;;;;;20.50;99.90;20.50;99257.00;;;;344826;28;83482;-91
2021/07/31 00:23:06;;;;;;;;;;;20.50;99.90;20.50;99258.00;;;;344361;28;91208;-91
2021/07/31 00:23:18;;;;;;;;;;;20.60;99.90;20.60;99257.00;;;;344778;28;83298;-91
2021/07/31 00:23:30;;;;;;;;;;;20.50;99.90;20.60;99259.00;;;;342988;28;93296;-91
2021/07/31 00:23:42;;;;;;;;;;;20.60;99.90;20.80;99259.00;;;;344787;28;83467;-91
2021/07/31 00:23:54;;;;;;;;;;;20.50;99.90;20.80;99265.00;;;;343520;28;90323;-91
2021/07/31 00:24:07;;;;;;;;;;;20.60;99.90;20.70;99263.00;;;;342881;28;82558;-91
2021/07/31 00:24:19;;;;;;;;;;;20.60;99.90;20.70;99261.00;;;;344735;28;90616;-92
2021/07/31 00:24:31;;;;;;;;;;;20.60;99.90;20.70;99263.00;;;;343744;28;83463;-91
2021/07/31 00:24:43;;;;;;;;;;;20.60;99.90;20.70;99263.00;;;;344444;28;90792;-91
2021/07/31 00:24:54;;;;;;;;;;;20.50;99.90;20.60;99255.00;;;;345111;28;83363;-91
2021/07/31 00:25:07;;;;;;;;;;;20.50;99.90;20.70;99258.00;;;;344087;28;91506;-92
2021/07/31 00:25:19;;;;;;;;;;;20.50;99.90;20.80;99261.00;;;;343720;28;83422;-92
2021/07/31 00:25:31;;;;;;;;;;;20.50;99.90;20.90;99261.00;;;;344255;28;91554;-92
2021/07/31 00:25:43;;;;;;;;;;;20.60;99.90;20.90;99257.00;;;;344833;28;83551;-91
2021/07/31 00:25:55;;;;;;;;;;;20.60;99.90;20.90;99260.00;;;;345903;28;90572;-91
2021/07/31 00:26:07;;;;;;;;;;;20.60;99.90;21.00;99255.00;;;;345096;28;83551;-91
2021/07/31 00:26:20;;;;;;;;;;;20.60;99.90;21.00;99253.00;;;;344835;28;92283;-91
2021/07/31 00:26:32;;;;;;;;;;;20.60;99.90;20.90;99256.00;;;;346547;28;83194;-91
2021/07/31 00:26:44;;;;;;;;;;;20.60;99.90;21.00;99269.00;;;;346075;28;90488;-91
2021/07/31 00:26:56;;;;;;;;;;;20.70;99.90;21.00;99263.00;;;;345348;28;82513;-92
2021/07/31 00:27:08;;;;;;;;;;;20.70;99.90;21.00;99259.00;;;;346117;28;91761;-91
2021/07/31 00:27:24;;;;;;;;;;;20.70;99.90;21.00;99257.00;;;;346499;28;82515;-91
2021/07/31 00:27:36;;;;;;;;;;;20.70;99.90;21.00;99255.00;;;;343205;28;91246;-90
2021/07/31 00:27:49;;;;;;;;;;;20.70;99.90;21.00;99264.00;;;;342233;28;82561;-90
2021/07/31 00:28:02;;;;;;;;;;;20.70;99.90;21.00;99253.00;;;;341995;28;91551;-91
2021/07/31 00:28:13;;;;;;;;;;;20.70;99.90;20.90;99261.00;;;;343476;28;83444;-91
2021/07/31 00:28:25;;;;;;;;;;;20.70;99.90;21.00;99257.00;;;;343086;28;88056;-91
2021/07/31 00:28:37;;;;;;;;;;;20.70;99.90;21.00;99258.00;;;;344141;28;82427;-92
2021/07/31 00:28:49;;;;;;;;;;;20.70;99.90;20.90;99250.00;;;;341854;28;91173;-91
2021/07/31 00:29:01;;;;;;;;;;;20.70;99.90;20.90;99261.00;;;;343614;28;82502;-90
2021/07/31 00:29:13;;;;;;;;;;;20.70;99.90;20.90;99263.00;;;;346070;28;91678;-91
2021/07/31 00:29:25;;;;;;;;;;;20.70;99.80;21.00;99267.00;;;;342428;28;83342;-91
2021/07/31 00:29:37;;;;;;;;;;;20.70;99.90;21.00;99258.00;;;;343604;28;91527;-91
2021/07/31 00:29:49;;;;;;;;;;;20.70;99.90;21.00;99258.00;;;;346244;28;83509;-91
2021/07/31 00:30:02;;;;;;;;;;;20.70;99.90;21.00;99258.00;;;;344428;28;91094;-91
2021/07/31 00:30:14;;;;;;;;;;;20.70;99.90;21.10;99254.00;;;;346401;28;83388;-90
2021/07/31 00:30:27;;;;;;;;;;;20.80;99.90;21.00;99259.00;;;;342951;28;91201;-90
2021/07/31 00:30:39;;;;;;;;;;;20.80;99.90;21.00;99257.00;;;;346548;28;83470;-91
2021/07/31 00:30:51;;;;;;;;;;;20.80;99.90;20.90;99259.00;;;;343283;28;91882;-90
2021/07/31 00:31:03;;;;;;;;;;;20.70;99.90;20.90;99259.00;;;;344710;28;82714;-91
2021/07/31 00:31:16;;;;;;;;;;;20.80;99.90;20.90;99257.00;;;;344605;28;90770;-91
2021/07/31 00:31:29;;;;;;;;;;;20.70;99.90;20.90;99261.00;;;;346749;28;83385;-91
2021/07/31 00:31:41;;;;;;;;;;;20.70;99.90;21.00;99260.00;;;;345641;28;91627;-90
2021/07/31 00:31:53;;;;;;;;;;;20.80;99.90;20.90;99258.00;;;;343666;28;83426;-91
2021/07/31 00:32:07;;;;;;;;;;;20.80;99.90;20.80;99260.00;;;;346758;28;92203;-92
2021/07/31 00:32:19;;;;;;;;;;;20.80;99.90;20.90;99252.00;;;;346588;28;82446;-91
2021/07/31 00:32:30;;;;;;;;;;;20.80;99.90;21.00;99261.00;;;;346050;28;90545;-91
2021/07/31 00:32:42;;;;;;;;;;;20.80;99.90;21.00;99252.00;;;;347890;28;83313;-90
2021/07/31 00:32:55;;;;;;;;;;;20.80;99.90;21.00;99258.00;;;;343304;28;90809;-91
2021/07/31 00:33:07;;;;;;;;;;;20.80;99.90;21.00;99257.00;;;;346747;28;83390;-91
2021/07/31 00:33:19;;;;;;;;;;;20.80;99.90;21.00;99246.00;;;;346074;28;90788;-91
2021/07/31 00:33:31;;;;;;;;;;;20.80;99.90;21.00;99258.00;;;;345081;28;83570;-91
2021/07/31 00:33:43;;;;;;;;;;;20.80;99.90;21.00;99253.00;;;;343350;28;91563;-90
2021/07/31 00:33:55;;;;;;;;;;;20.80;99.90;21.00;99255.00;;;;345157;28;82546;-91
2021/07/31 00:34:08;;;;;;;;;;;20.80;99.90;20.90;99254.00;;;;345737;28;90168;-91
2021/07/31 00:34:20;;;;;;;;;;;20.80;99.90;20.90;99252.00;;;;345248;28;82504;-91
2021/07/31 00:34:32;;;;;;;;;;;20.80;99.90;21.00;99255.00;;;;346292;28;91271;-90
2021/07/31 00:34:44;;;;;;;;;;;20.80;99.90;21.10;99247.00;;;;343994;28;82483;-91
2021/07/31 00:34:56;;;;;;;;;;;20.80;99.90;21.00;99253.00;;;;343455;28;91024;-91
2021/07/31 00:35:09;;;;;;;;;;;20.80;99.90;21.00;99254.00;;;;343725;28;83566;-91
2021/07/31 00:35:21;;;;;;;;;;;20.80;99.90;20.90;99246.00;;;;343367;28;91622;-91
2021/07/31 00:35:32;;;;;;;;;;;20.80;99.90;21.00;99246.00;;;;345249;28;82382;-91
2021/07/31 00:35:44;;;;;;;;;;;20.80;99.90;20.90;99254.00;;;;344609;28;91146;-91
2021/07/31 00:35:57;;;;;;;;;;;20.80;99.90;20.80;99251.00;;;;345304;28;83412;-91
2021/07/31 00:36:09;;;;;;;;;;;20.80;99.80;20.90;99251.00;;;;347331;28;89901;-91
2021/07/31 00:36:21;;;;;;;;;;;20.80;99.80;20.90;99251.00;;;;344831;28;83394;-91
2021/07/31 00:36:33;;;;;;;;;;;20.80;99.90;20.90;99251.00;;;;342955;28;91805;-91
2021/07/31 00:36:45;;;;;;;;;;;20.80;99.90;20.90;99251.00;;;;344786;28;83443;-92
2021/07/31 00:36:57;;;;;;;;;;;20.80;99.90;20.90;99250.00;;;;345577;28;90836;-91
2021/07/31 00:37:09;;;;;;;;;;;20.80;99.90;20.80;99252.00;;;;343749;28;83553;-90
2021/07/31 00:37:20;;;;;;;;;;;20.80;99.90;20.90;99249.00;;;;344249;28;91950;-91
2021/07/31 00:37:32;;;;;;;;;;;20.80;99.80;20.80;99245.00;;;;346155;28;83508;-91
2021/07/31 00:37:45;;;;;;;;;;;20.80;99.80;20.90;99250.00;;;;344358;28;92333;-91
2021/07/31 00:37:56;;;;;;;;;;;20.80;99.70;20.90;99240.00;;;;344539;28;83297;-91
2021/07/31 00:38:08;;;;;;;;;;;20.80;99.90;20.80;99247.00;;;;345519;28;92257;-91
2021/07/31 00:38:20;;;;;;;;;;;20.80;99.90;20.90;99240.00;;;;343515;28;82689;-91
2021/07/31 00:38:32;;;;;;;;;;;20.80;99.90;20.80;99247.00;;;;345680;28;91649;-91
2021/07/31 00:38:44;;;;;;;;;;;20.80;99.80;20.90;99241.00;;;;344802;28;83443;-91
2021/07/31 00:38:56;;;;;;;;;;;20.80;99.80;20.90;99248.00;;;;345807;28;89615;-91
2021/07/31 00:39:08;;;;;;;;;;;20.80;99.80;20.90;99247.00;;;;344753;28;83398;-90
2021/07/31 00:39:20;;;;;;;;;;;20.80;99.80;20.90;99240.00;;;;343240;28;91583;-91
2021/07/31 00:39:38;;;;;;;;;;;20.80;99.90;20.90;99240.00;;;;344725;28;83415;-92
2021/07/31 00:39:50;;;;;;;;;;;20.80;99.90;20.80;99251.00;;;;342725;28;92254;-91
2021/07/31 00:40:02;;;;;;;;;;;20.80;99.70;20.90;99247.00;;;;345685;28;83635;-90
2021/07/31 00:40:15;;;;;;;;;;;20.80;99.80;20.90;99246.00;;;;343642;28;90551;-91
2021/07/31 00:40:27;;;;;;;;;;;20.80;99.80;20.80;99242.00;;;;347621;28;83453;-91
2021/07/31 00:40:39;;;;;;;;;;;20.80;99.70;20.80;99240.00;;;;344495;28;91585;-90
2021/07/31 00:40:50;;;;;;;;;;;20.80;99.80;20.80;99240.00;;;;344768;28;83360;-91
2021/07/31 00:41:02;;;;;;;;;;;20.80;99.90;20.80;99247.00;;;;345221;28;91590;-90
2021/07/31 00:41:15;;;;;;;;;;;20.80;99.80;20.90;99242.00;;;;343358;28;83423;-91
2021/07/31 00:41:26;;;;;;;;;;;20.80;99.80;20.90;99238.00;;;;341360;28;91895;-91
2021/07/31 00:41:38;;;;;;;;;;;20.80;99.80;20.80;99239.00;;;;344721;28;82590;-91
2021/07/31 00:41:50;;;;;;;;;;;20.80;99.90;20.80;99236.00;;;;344295;28;91102;-91
2021/07/31 00:42:02;;;;;;;;;;;20.80;99.90;20.80;99243.00;;;;344719;28;83436;-91
2021/07/31 00:42:14;;;;;;;;;;;20.80;99.90;20.80;99242.00;;;;344137;28;91024;-91
2021/07/31 00:42:25;;;;;;;;;;;20.80;99.90;20.80;99239.00;;;;343455;28;83343;-91
2021/07/31 00:42:41;;;;;;;;;;;20.70;99.90;20.80;99240.00;;;;344294;28;91465;-90
2021/07/31 00:42:53;;;;;;;;;;;20.80;99.90;20.80;99243.00;;;;343471;28;82440;-91
2021/07/31 00:43:08;;;;;;;;;;;20.70;99.90;20.80;99238.00;;;;343086;28;91907;-91
2021/07/31 00:43:19;;;;;;;;;;;20.70;99.90;20.80;99233.00;;;;344440;28;82528;-92
2021/07/31 00:43:31;;;;;;;;;;;20.70;99.90;20.90;99236.00;;;;345108;28;89840;-91
2021/07/31 00:43:43;;;;;;;;;;;20.70;99.90;20.90;99236.00;;;;344768;28;83525;-91
2021/07/31 00:43:55;;;;;;;;;;;20.80;99.90;20.90;99236.00;;;;342835;28;92665;-91
2021/07/31 00:44:07;;;;;;;;;;;20.70;99.90;20.90;99238.00;;;;344706;28;83449;-91
2021/07/31 00:44:18;;;;;;;;;;;20.80;99.90;20.90;99238.00;;;;345741;28;90845;-90
2021/07/31 00:44:30;;;;;;;;;;;20.80;99.90;20.90;99235.00;;;;344749;28;83502;-91
2021/07/31 00:44:42;;;;;;;;;;;20.80;99.90;20.90;99238.00;;;;344255;28;91648;-91
2021/07/31 00:44:54;;;;;;;;;;;20.80;99.90;20.90;99237.00;;;;344604;28;83401;-91
2021/07/31 00:45:08;;;;;;;;;;;20.80;99.90;20.90;99231.00;;;;342981;28;90827;-91
2021/07/31 00:45:20;;;;;;;;;;;20.80;99.90;20.80;99233.00;;;;343277;28;82451;-91
2021/07/31 00:45:31;;;;;;;;;;;20.80;99.90;20.90;99231.00;;;;343060;28;88801;-91
2021/07/31 00:45:43;;;;;;;;;;;20.80;99.90;20.80;99242.00;;;;344810;28;83377;-91
2021/07/31 00:45:55;;;;;;;;;;;20.80;99.90;20.80;99235.00;;;;345508;28;91781;-90
2021/07/31 00:46:07;;;;;;;;;;;20.80;99.90;20.90;99236.00;;;;348514;27;83248;-91
2021/07/31 00:46:19;;;;;;;;;;;20.80;99.90;20.90;99240.00;;;;345496;28;92003;-91
2021/07/31 00:46:31;;;;;;;;;;;20.80;99.90;20.90;99239.00;;;;344641;28;83432;-91
2021/07/31 00:46:43;;;;;;;;;;;20.80;99.90;20.90;99242.00;;;;343018;28;90603;-91
2021/07/31 00:46:55;;;;;;;;;;;20.80;99.90;20.90;99238.00;;;;344809;28;83396;-90
2021/07/31 00:47:07;;;;;;;;;;;20.80;99.90;20.90;99231.00;;;;344188;28;90426;-91
2021/07/31 00:47:20;;;;;;;;;;;20.80;99.90;20.90;99231.00;;;;346197;28;83399;-90
2021/07/31 00:47:32;;;;;;;;;;;20.80;99.90;20.90;99234.00;;;;344395;28;90448;-91
2021/07/31 00:47:44;;;;;;;;;;;20.80;99.80;20.90;99234.00;;;;344707;28;83197;-90
2021/07/31 00:47:56;;;;;;;;;;;20.80;99.70;20.90;99235.00;;;;345526;28;92476;-90
2021/07/31 00:48:07;;;;;;;;;;;20.80;99.80;20.90;99230.00;;;;347514;28;82519;-91
2021/07/31 00:48:20;;;;;;;;;;;20.80;99.70;20.90;99233.00;;;;344299;28;90107;-91
2021/07/31 00:48:32;;;;;;;;;;;20.80;99.70;20.90;99235.00;;;;344616;28;83439;-90
2021/07/31 00:48:44;;;;;;;;;;;20.80;99.70;20.90;99231.00;;;;344416;28;91117;-91
2021/07/31 00:48:56;;;;;;;;;;;20.80;99.70;20.90;99235.00;;;;344843;28;83399;-91
2021/07/31 00:49:07;;;;;;;;;;;20.80;99.70;20.80;99232.00;;;;344406;28;91525;-91
2021/07/31 00:49:19;;;;;;;;;;;20.80;99.70;20.90;99233.00;;;;346044;28;82598;-91
2021/07/31 00:49:32;;;;;;;;;;;20.80;99.70;20.90;99234.00;;;;344201;28;91571;-91
2021/07/31 00:49:43;;;;;;;;;;;20.80;99.80;20.80;99230.00;;;;343335;28;83410;-90
2021/07/31 00:49:55;;;;;;;;;;;20.80;99.80;20.80;99233.00;;;;342911;28;92625;-91
2021/07/31 00:50:08;;;;;;;;;;;20.80;99.80;20.80;99234.00;;;;345807;28;82647;-91
2021/07/31 00:50:19;;;;;;;;;;;20.80;99.60;20.80;99233.00;;;;343039;28;89053;-91
2021/07/31 00:50:32;;;;;;;;;;;20.80;99.50;20.80;99224.00;;;;343403;28;83527;-91
2021/07/31 00:50:44;;;;;;;;;;;20.80;99.60;20.90;99231.00;;;;347092;28;90994;-91
2021/07/31 00:50:56;;;;;;;;;;;20.80;99.60;20.90;99227.00;;;;342018;28;83462;-91
2021/07/31 00:51:08;;;;;;;;;;;20.80;99.60;20.90;99232.00;;;;345722;28;90909;-91
2021/07/31 00:51:19;;;;;;;;;;;20.80;99.70;20.90;99235.00;;;;343117;28;83404;-91
2021/07/31 00:51:31;;;;;;;;;;;20.80;99.70;20.90;99229.00;;;;343028;28;91612;-91
2021/07/31 00:51:43;;;;;;;;;;;20.80;99.70;20.90;99226.00;;;;343508;28;82493;-90
2021/07/31 00:51:55;;;;;;;;;;;20.80;99.70;20.80;99225.00;;;;345615;28;91819;-91
2021/07/31 00:52:07;;;;;;;;;;;20.80;99.60;20.80;99228.00;;;;346637;28;82540;-91
2021/07/31 00:52:19;;;;;;;;;;;20.80;99.60;20.90;99225.00;;;;344228;28;90033;-91
2021/07/31 00:52:31;;;;;;;;;;;20.80;99.60;20.90;99216.00;;;;345922;28;83515;-90
2021/07/31 00:52:43;;;;;;;;;;;20.80;99.70;20.90;99222.00;;;;345786;28;91568;-90
2021/07/31 00:52:55;;;;;;;;;;;20.80;99.70;20.90;99227.00;;;;344764;28;83426;-91
2021/07/31 00:53:07;;;;;;;;;;;20.80;99.70;20.90;99218.00;;;;344182;28;91404;-91
2021/07/31 00:53:18;;;;;;;;;;;20.80;99.90;20.90;99222.00;;;;344923;28;83437;-91
2021/07/31 00:53:30;;;;;;;;;;;20.80;99.50;20.90;99219.00;;;;343079;28;90618;-90
2021/07/31 00:53:43;;;;;;;;;;;20.80;99.50;20.80;99224.00;;;;343431;28;82545;-90
2021/07/31 00:53:55;;;;;;;;;;;20.80;99.40;20.90;99224.00;;;;342953;28;91459;-90
2021/07/31 00:54:07;;;;;;;;;;;20.80;99.40;20.90;99222.00;;;;344884;28;82521;-91
2021/07/31 00:54:19;;;;;;;;;;;20.80;99.40;20.90;99217.00;;;;343082;28;91770;-91
2021/07/31 00:54:31;;;;;;;;;;;20.80;99.50;20.80;99228.00;;;;343363;28;83506;-91
2021/07/31 00:54:42;;;;;;;;;;;20.80;99.50;20.80;99224.00;;;;344562;28;91118;-91
2021/07/31 00:54:55;;;;;;;;;;;20.80;99.40;20.80;99211.00;;;;343232;28;83455;-90
2021/07/31 00:55:09;;;;;;;;;;;20.80;99.40;20.80;99223.00;;;;346661;28;90398;-91
2021/07/31 00:55:21;;;;;;;;;;;20.80;99.50;20.90;99228.00;;;;343515;28;82576;-90
2021/07/31 00:55:35;;;;;;;;;;;20.80;99.50;20.80;99218.00;;;;345177;28;91907;-90
2021/07/31 00:55:47;;;;;;;;;;;20.80;99.40;20.90;99225.00;;;;344816;28;83429;-90
2021/07/31 00:55:59;;;;;;;;;;;20.80;99.40;20.90;99224.00;;;;342898;28;92496;-91
2021/07/31 00:56:12;;;;;;;;;;;20.80;99.40;20.90;99223.00;;;;343477;28;83373;-91
2021/07/31 00:56:24;;;;;;;;;;;20.80;99.50;20.80;99227.00;;;;343021;28;90859;-90
2021/07/31 00:56:35;;;;;;;;;;;20.80;99.50;20.80;99222.00;;;;343467;28;82565;-91
2021/07/31 00:56:47;;;;;;;;;;;20.80;99.50;20.80;99226.00;;;;345883;28;90945;-90
2021/07/31 00:56:59;;;;;;;;;;;20.80;99.50;20.80;99222.00;;;;346154;28;83424;-90
2021/07/31 00:57:11;;;;;;;;;;;20.80;99.50;20.90;99217.00;;;;345554;28;92182;-91
2021/07/31 00:57:23;;;;;;;;;;;20.80;99.50;20.80;99221.00;;;;344494;28;83499;-91
2021/07/31 00:57:35;;;;;;;;;;;20.80;99.50;20.90;99231.00;;;;345591;28;91757;-91
2021/07/31 00:57:47;;;;;;;;;;;20.80;99.40;20.90;99219.00;;;;344748;28;83139;-91
2021/07/31 00:57:59;;;;;;;;;;;20.80;99.20;20.90;99220.00;;;;344076;28;92043;-91
2021/07/31 00:58:11;;;;;;;;;;;20.80;99.00;20.90;99226.00;;;;345711;28;83435;-91
2021/07/31 00:58:23;;;;;;;;;;;20.80;98.90;20.90;99217.00;;;;345663;28;90453;-91
2021/07/31 00:58:35;;;;;;;;;;;20.80;98.90;20.80;99222.00;;;;344699;28;83576;-92
2021/07/31 00:58:47;;;;;;;;;;;20.80;98.90;20.80;99223.00;;;;344298;28;92604;-90
2021/07/31 00:58:59;;;;;;;;;;;20.80;98.90;20.90;99221.00;;;;344632;28;82598;-92
2021/07/31 00:59:11;;;;;;;;;;;20.80;99.00;20.90;99222.00;;;;344229;28;91924;-91
2021/07/31 00:59:23;;;;;;;;;;;20.80;99.10;20.90;99219.00;;;;347503;28;83426;-91
2021/07/31 00:59:35;;;;;;;;;;;20.80;99.00;20.90;99219.00;;;;345626;28;92288;-91
2021/07/31 00:59:46;;;;;;;;;;;20.80;99.00;20.90;99216.00;;;;343376;28;82492;-91
2021/07/31 00:59:58;;;;;;;;;;;20.80;98.90;20.80;99210.00;;;;344055;28;92683;-91
2021/07/31 01:00:10;;;;;;;;;;;20.80;99.00;20.80;99220.00;;;;344768;28;83471;-91
2021/07/31 01:00:22;;;;;;;;;;;20.70;99.00;20.80;99224.00;;;;345670;28;90813;-91